SPJL/JUL METAR and TAF weather

Enter ICAO airport designator
Station Type Date Time Source
SPJL METAR 2019/02/17 16:00 UTC NOAA

SPJL 171600Z 28002KT 9999 BKN020 15/06 Q1036 RMK PP000


Station Type Date Time Source
SPJL Decoded METAR 2019/02/17 16:00 UTC NOAA

Juliaca, Peru (SPJL) 15-29S 070-09W 3827M
Feb 17, 2019 - 11:00 AM EST / 2019.02.17 1600 UTC
Wind: from the W (280 degrees) at 2 MPH (2 KT):0
Visibility: greater than 7 mile(s):0
Sky conditions: mostly cloudy
Temperature: 59 F (15 C)
Dew Point: 42 F (6 C)
Relative Humidity: 54%
Pressure (altimeter): 30.59 in. Hg (1036 hPa)
ob: SPJL 171600Z 28002KT 9999 BKN020 15/06 Q1036 RMK PP000
cycle: 16

Station Type Date Time Source
SPJL TAF 2019/02/17 12:33 UTC NOAA

TAF SPJL 171115Z 1712/1812 05005KT 9999 BKN015 BKN060 TX16/1718Z TN06/1810Z
BECMG 1719/1721 22010KT
FM172230 VRB05KT 9999 BKN020 BKN090


Example: see airport list